Archiv-/Tagesdaten

--Timestamp---	Temp	Chill	HIndex	Humid	Dewpt	Wind	HiWind	WindDir	Rain	Barom	Solar	ET	UV
--------------	----	-----	------	-----	-----	----	------	-------	----	-----	-----	--	--
20071016 00:05	7.7	7.7	7.7	89	6.0	0	3	180	0.00	1020.830	0	0.000	0
20071016 00:10	7.7	7.7	7.7	89	6.0	0	3	180	0.00	1020.796	0	0.000	0
20071016 00:15	7.6	7.6	7.6	89	5.9	0	3	180	0.00	1020.796	0	0.000	0
20071016 00:20	7.6	7.6	7.6	89	5.9	0	2	180	0.00	1020.728	0	0.000	0
20071016 00:25	7.5	7.5	7.5	89	5.8	0	2	180	0.00	1020.728	0	0.000	0
20071016 00:30	7.4	7.4	7.4	89	5.7	0	2	180	0.00	1020.728	0	0.000	0
20071016 00:35	7.3	7.3	7.3	89	5.6	0	2	180	0.00	1020.864	0	0.000	0
20071016 00:40	7.3	7.3	7.3	89	5.6	0	2	180	0.00	1020.864	0	0.000	0
20071016 00:45	7.3	7.3	7.3	89	5.6	0	5	180	0.00	1020.864	0	0.000	0
20071016 00:50	7.3	7.3	7.3	89	5.6	0	3	180	0.00	1020.897	0	0.000	0
20071016 00:55	7.3	7.3	7.3	89	5.6	0	5	180	0.00	1020.931	0	0.000	0
20071016 01:00	7.2	7.2	7.2	89	5.5	0	2	180	0.00	1020.931	0	0.000	0
20071016 01:05	7.2	7.2	7.2	90	5.7	0	5	180	0.00	1020.864	0	0.000	0
20071016 01:10	7.2	7.2	7.2	90	5.7	0	3	180	0.00	1020.864	0	0.000	0
20071016 01:15	7.2	7.2	7.2	90	5.6	0	2	180	0.00	1020.864	0	0.000	0
20071016 01:20	7.1	7.1	7.1	90	5.6	0	2	180	0.00	1020.830	0	0.000	0
20071016 01:25	7.0	7.0	7.0	90	5.5	0	2	180	0.00	1020.830	0	0.000	0
20071016 01:30	6.9	6.9	6.9	90	5.4	0	3	180	0.00	1020.897	0	0.000	0
20071016 01:35	6.9	6.9	6.9	90	5.4	0	2	180	0.00	1020.796	0	0.000	0
20071016 01:40	6.9	6.9	6.9	90	5.4	0	5	180	0.00	1020.897	0	0.000	0
20071016 01:45	6.9	6.9	6.9	90	5.4	0	3	180	0.00	1020.931	0	0.000	0
20071016 01:50	6.8	6.8	6.8	90	5.3	0	2	180	0.00	1020.931	0	0.000	0
20071016 01:55	6.8	6.8	6.8	90	5.3	0	2	180	0.00	1020.999	0	0.000	0
20071016 02:00	6.7	6.7	6.7	90	5.2	0	2	180	0.00	1020.999	0	0.000	0
20071016 02:05	6.7	6.7	6.7	90	5.1	2	5	180	0.00	1021.033	0	0.000	0
20071016 02:10	6.7	6.7	6.7	91	5.4	3	8	180	0.00	1020.965	0	0.000	0
20071016 02:15	6.7	6.7	6.7	90	5.2	3	8	180	0.00	1020.965	0	0.000	0
20071016 02:20	6.7	6.7	6.7	90	5.2	3	6	180	0.00	1020.999	0	0.000	0
20071016 02:25	6.8	6.8	6.8	90	5.3	0	3	180	0.00	1021.033	0	0.000	0
20071016 02:30	6.8	6.8	6.8	90	5.3	2	6	180	0.00	1020.999	0	0.000	0
20071016 02:35	6.8	6.8	6.8	90	5.3	2	6	180	0.00	1020.965	0	0.000	0
20071016 02:40	6.8	6.8	6.8	90	5.3	0	3	180	0.00	1020.965	0	0.000	0
20071016 02:45	6.8	6.8	6.8	90	5.3	2	6	180	0.00	1020.965	0	0.000	0
20071016 02:50	6.9	6.9	6.9	90	5.4	2	5	180	0.00	1020.965	0	0.000	0
20071016 02:55	7.1	7.1	7.1	90	5.5	2	6	180	0.00	1020.965	0	0.000	0
20071016 03:00	7.1	7.1	7.1	90	5.5	3	8	202	0.00	1020.931	0	0.000	0
20071016 03:05	7.1	7.1	7.1	90	5.6	3	8	202	0.00	1020.762	0	0.000	0
20071016 03:10	7.1	7.1	7.1	90	5.6	3	8	202	0.00	1020.796	0	0.000	0
20071016 03:15	7.2	7.2	7.2	89	5.5	3	8	202	0.00	1020.762	0	0.000	0
20071016 03:20	7.1	7.1	7.1	89	5.4	3	8	180	0.00	1020.762	0	0.000	0
20071016 03:25	7.1	7.1	7.1	89	5.4	2	8	202	0.00	1020.762	0	0.000	0
20071016 03:30	7.1	7.1	7.1	89	5.4	2	5	202	0.00	1020.796	0	0.000	0
20071016 03:35	7.0	7.0	7.0	89	5.3	2	5	202	0.00	1020.796	0	0.000	0
20071016 03:40	6.9	6.9	6.9	89	5.3	0	3	180	0.00	1020.864	0	0.000	0
20071016 03:45	6.9	6.9	6.9	89	5.2	0	3	180	0.00	1020.931	0	0.000	0
20071016 03:50	6.8	6.8	6.8	89	5.1	0	3	180	0.00	1020.931	0	0.000	0
20071016 03:55	6.8	6.8	6.8	89	5.1	2	6	180	0.00	1020.897	0	0.000	0
20071016 04:00	6.7	6.7	6.7	89	5.0	2	6	180	0.00	1020.864	0	0.000	0
20071016 04:05	6.7	6.7	6.7	89	5.0	2	6	180	0.00	1020.897	0	0.000	0
20071016 04:10	6.7	6.7	6.7	89	5.0	2	5	180	0.00	1020.897	0	0.000	0
20071016 04:15	6.7	6.7	6.7	89	5.0	2	5	180	0.00	1020.897	0	0.000	0
20071016 04:20	6.7	6.7	6.7	89	5.0	2	5	180	0.00	1020.897	0	0.000	0
20071016 04:25	6.8	6.8	6.8	89	5.1	3	5	180	0.00	1020.931	0	0.000	0
20071016 04:30	6.8	6.8	6.8	89	5.1	3	8	180	0.00	1020.965	0	0.000	0
20071016 04:35	6.9	6.9	6.9	88	5.0	3	8	202	0.00	1020.965	0	0.000	0
20071016 04:40	6.9	6.9	6.9	88	5.1	2	6	202	0.00	1020.999	0	0.000	0
20071016 04:45	6.9	6.9	6.9	88	5.1	2	3	180	0.00	1020.999	0	0.000	0
20071016 04:50	6.9	6.9	6.9	88	5.0	2	5	180	0.00	1021.033	0	0.000	0
20071016 04:55	6.8	6.8	6.8	88	5.0	2	6	180	0.00	1021.067	0	0.000	0
20071016 05:00	6.8	6.8	6.8	88	4.9	2	3	180	0.00	1021.101	0	0.000	0
20071016 05:05	6.7	6.7	6.7	88	4.9	2	6	180	0.00	1021.168	0	0.000	0
20071016 05:10	6.7	6.7	6.7	88	4.9	0	3	180	0.00	1021.270	0	0.000	0
20071016 05:15	6.7	6.7	6.7	88	4.8	2	6	157	0.00	1021.304	0	0.000	0
20071016 05:20	6.7	6.7	6.7	88	4.8	2	6	202	0.00	1021.304	0	0.000	0
20071016 05:25	6.7	6.7	6.7	88	4.8	2	8	202	0.00	1021.304	0	0.000	0
20071016 05:30	6.7	6.7	6.7	88	4.8	2	6	202	0.00	1021.304	0	0.000	0
20071016 05:35	6.7	6.7	6.7	88	4.8	2	6	180	0.00	1021.338	0	0.000	0
20071016 05:40	6.7	6.7	6.7	88	4.8	2	5	180	0.00	1021.338	0	0.000	0
20071016 05:45	6.6	6.6	6.6	87	4.6	2	5	180	0.00	1021.372	0	0.000	0
20071016 05:50	6.6	6.6	6.6	87	4.6	2	5	202	0.00	1021.338	0	0.000	0
20071016 05:55	6.6	6.6	6.6	87	4.5	0	5	157	0.00	1021.338	0	0.000	0
20071016 06:00	6.5	6.5	6.5	87	4.5	0	6	180	0.00	1021.338	0	0.000	0
20071016 06:05	6.6	6.6	6.6	87	4.5	2	6	180	0.00	1021.744	0	0.000	0
20071016 06:10	6.5	6.5	6.5	87	4.5	2	5	180	0.00	1021.744	0	0.000	0
20071016 06:15	6.4	6.4	6.4	87	4.4	0	5	180	0.00	1021.744	0	0.000	0
20071016 06:20	6.4	6.4	6.4	87	4.4	0	3	180	0.00	1021.744	0	0.000	0
20071016 06:25	6.3	6.3	6.3	87	4.3	2	5	180	0.00	1021.846	0	0.000	0
20071016 06:30	6.3	6.3	6.3	87	4.3	0	5	180	0.00	1021.812	0	0.000	0
20071016 06:35	6.3	6.3	6.3	88	4.4	0	3	180	0.00	1021.846	0	0.000	0
20071016 06:40	6.3	6.3	6.3	88	4.4	0	5	180	0.00	1021.880	0	0.000	0
20071016 06:45	6.3	6.3	6.3	87	4.3	2	5	180	0.00	1021.880	0	0.000	0
20071016 06:50	6.3	6.3	6.3	87	4.3	0	5	180	0.00	1021.880	0	0.000	0
20071016 06:55	6.3	6.3	6.3	87	4.3	2	6	180	0.00	1021.880	0	0.000	0
20071016 07:00	6.2	6.2	6.2	87	4.2	2	3	180	0.00	1021.913	0	0.000	0
20071016 07:05	6.2	6.2	6.2	87	4.2	2	6	180	0.00	1022.150	0	0.000	0
20071016 07:10	6.2	6.2	6.2	87	4.2	0	5	180	0.00	1022.083	0	0.000	0
20071016 07:15	6.2	6.2	6.2	87	4.2	0	3	180	0.00	1022.150	0	0.000	0
20071016 07:20	6.2	6.2	6.2	87	4.2	0	5	180	0.00	1022.252	0	0.000	0
20071016 07:25	6.2	6.2	6.2	87	4.2	0	5	180	0.00	1022.286	0	0.000	0
20071016 07:30	6.2	6.2	6.2	87	4.2	2	6	180	0.00	1022.286	0	0.000	0
20071016 07:35	6.2	6.2	6.2	88	4.4	2	10	180	0.00	1022.320	0	0.000	0
20071016 07:40	6.3	6.3	6.3	87	4.3	2	6	202	0.00	1022.387	3	0.000	0
20071016 07:45	6.3	6.3	6.3	87	4.3	2	6	202	0.00	1022.455	6	0.000	0
20071016 07:50	6.3	6.3	6.3	87	4.3	2	6	180	0.00	1022.455	9	0.000	0
20071016 07:55	6.4	6.4	6.4	87	4.4	2	5	180	0.00	1022.489	11	0.000	0
20071016 08:00	6.4	6.4	6.4	87	4.4	2	3	157	0.00	1022.523	13	0.000	0
20071016 08:05	6.4	6.4	6.4	87	4.4	2	5	180	0.00	1022.692	16	0.000	0
20071016 08:10	6.4	6.4	6.4	87	4.4	2	5	180	0.00	1022.726	18	0.000	0
20071016 08:15	6.4	6.4	6.4	87	4.4	0	3	180	0.00	1022.760	20	0.000	0
20071016 08:20	6.4	6.4	6.4	87	4.4	2	6	180	0.00	1022.828	23	0.000	0
20071016 08:25	6.6	6.6	6.6	87	4.5	0	6	180	0.00	1022.862	25	0.000	0
20071016 08:30	6.7	6.7	6.7	86	4.5	0	3	180	0.00	1022.862	26	0.000	0
20071016 08:35	6.7	6.7	6.7	87	4.7	0	3	180	0.00	1022.862	27	0.000	0
20071016 08:40	6.8	6.8	6.8	86	4.6	0	3	180	0.00	1022.963	28	0.000	0
20071016 08:45	6.9	6.9	6.9	86	4.7	0	5	180	0.00	1022.997	30	0.000	0
20071016 08:50	7.0	7.0	7.0	86	4.8	0	2	180	0.00	1022.929	32	0.000	0
20071016 08:55	7.2	7.2	7.2	86	5.0	0	5	180	0.00	1022.963	33	0.000	0
20071016 09:00	7.3	7.3	7.3	86	5.1	0	3	180	0.00	1023.031	34	0.020	0
20071016 09:05	7.5	7.5	7.5	85	5.1	0	3	180	0.00	1023.234	35	0.000	0
20071016 09:10	7.7	7.7	7.7	86	5.5	0	5	180	0.00	1023.302	37	0.000	0
20071016 09:15	7.9	7.9	7.9	85	5.5	2	8	180	0.00	1023.302	39	0.000	0
20071016 09:20	8.2	8.2	8.2	85	5.8	2	6	180	0.00	1023.234	40	0.000	0
20071016 09:25	8.3	8.3	8.3	84	5.8	2	6	180	0.00	1023.234	42	0.000	0
20071016 09:30	8.6	8.6	8.6	84	6.0	2	6	180	0.00	1023.302	43	0.000	0
20071016 09:35	8.8	8.8	8.8	83	6.1	3	10	225	0.00	1023.403	44	0.000	0
20071016 09:40	9.1	9.1	9.1	83	6.3	2	8	225	0.00	1023.437	46	0.000	0
20071016 09:45	9.2	9.2	9.2	83	6.5	0	6	225	0.00	1023.302	46	0.000	0
20071016 09:50	9.5	9.5	9.5	83	6.8	0	2	225	0.00	1023.336	47	0.000	0
20071016 09:55	9.7	9.7	9.7	82	6.8	2	8	225	0.00	1023.370	50	0.000	0
20071016 10:00	10.0	10.0	10.0	81	6.9	2	6	225	0.00	1023.370	51	0.020	0
20071016 10:05	10.2	10.2	10.2	80	6.9	2	6	225	0.00	1023.370	53	0.000	0
20071016 10:10	10.4	10.4	10.4	80	7.1	0	2	225	0.00	1023.336	53	0.000	0
20071016 10:15	10.8	10.8	10.8	79	7.3	2	5	225	0.00	1023.370	54	0.000	0
20071016 10:20	11.0	11.0	11.0	79	7.5	0	2	225	0.00	1023.234	54	0.000	0
20071016 10:25	11.3	11.3	11.3	78	7.6	2	5	225	0.00	1023.234	53	0.000	0
20071016 10:30	11.6	11.6	11.6	77	7.7	2	3	225	0.00	1023.302	54	0.000	0
20071016 10:35	11.9	11.9	11.9	77	8.0	0	5	225	0.00	1023.302	56	0.000	1
20071016 10:40	12.1	12.1	12.1	77	8.2	0	2	225	0.00	1023.166	56	0.000	1
20071016 10:45	12.4	12.4	12.4	77	8.5	0	2	225	0.00	1023.132	56	0.000	1
20071016 10:50	12.8	12.8	12.8	75	8.5	0	3	225	0.00	1023.132	56	0.000	1
20071016 10:55	13.2	13.2	13.2	74	8.7	2	6	225	0.00	1022.997	56	0.000	1
20071016 11:00	13.7	13.7	13.7	71	8.5	2	6	225	0.00	1023.031	56	0.020	1
20071016 11:05	13.9	13.9	13.9	70	8.6	2	6	225	0.00	1022.997	56	0.000	1
20071016 11:10	14.2	14.2	14.2	68	8.4	2	10	270	0.00	1022.929	58	0.000	1
20071016 11:15	14.4	14.4	14.4	68	8.6	2	6	247	0.00	1022.929	58	0.000	1
20071016 11:20	14.6	14.6	14.6	67	8.5	3	6	270	0.00	1022.895	60	0.000	1
20071016 11:25	14.8	14.8	14.8	67	8.7	3	10	270	0.00	1022.963	67	0.000	1
20071016 11:30	15.0	15.0	15.0	66	8.7	3	8	247	0.00	1022.895	417	0.000	2
20071016 11:35	15.0	15.0	15.0	66	8.7	2	5	270	0.00	1022.862	422	0.000	2
20071016 11:40	15.3	15.3	15.3	66	9.0	2	6	270	0.00	1022.760	428	0.000	2
20071016 11:45	15.6	15.6	15.6	65	9.1	2	5	247	0.00	1022.726	432	0.000	2
20071016 11:50	15.9	15.9	15.9	64	9.1	0	3	247	0.00	1022.726	436	0.000	2
20071016 11:55	16.1	16.1	16.1	64	9.3	2	6	247	0.00	1022.692	442	0.000	2
20071016 12:00	16.2	16.2	16.2	64	9.4	3	6	270	0.00	1022.794	447	0.120	2
20071016 12:05	16.3	16.3	16.3	63	9.3	5	8	270	0.00	1022.692	452	0.000	2
20071016 12:10	16.4	16.4	16.4	62	9.1	3	8	270	0.00	1022.658	458	0.000	2
20071016 12:15	16.6	16.6	16.6	63	9.5	2	6	270	0.00	1022.591	462	0.000	2
20071016 12:20	16.8	16.8	16.8	62	9.5	3	10	292	0.00	1022.591	462	0.000	2
20071016 12:25	16.8	16.8	16.8	62	9.5	2	6	292	0.00	1022.489	464	0.000	2
20071016 12:30	16.8	16.8	16.8	64	9.9	0	2	22	0.00	1022.455	469	0.000	2
20071016 12:35	16.8	16.8	16.8	63	9.7	2	5	22	0.00	1022.421	471	0.000	2
20071016 12:40	16.9	16.9	16.9	64	10.1	2	6	292	0.00	1022.354	475	0.000	2
20071016 12:45	17.0	17.0	17.0	62	9.7	2	6	22	0.00	1022.184	478	0.000	2
20071016 12:50	16.9	16.9	16.9	62	9.6	2	8	292	0.00	1022.083	476	0.000	2
20071016 12:55	17.1	17.1	17.1	63	10.0	0	3	315	0.00	1022.015	478	0.000	2
20071016 13:00	17.3	17.3	17.3	61	9.7	0	5	337	0.00	1021.947	475	0.200	2
20071016 13:05	17.4	17.4	17.4	62	10.1	2	5	315	0.00	1022.049	476	0.000	2
20071016 13:10	17.7	17.7	17.7	60	9.8	2	8	292	0.00	1021.913	473	0.000	2
20071016 13:15	17.7	17.7	17.7	59	9.6	3	11	292	0.00	1021.880	478	0.000	2
20071016 13:20	17.8	17.8	17.8	58	9.5	5	11	292	0.00	1021.812	480	0.000	2
20071016 13:25	17.8	17.8	17.8	59	9.7	6	14	292	0.00	1021.778	479	0.000	2
20071016 13:30	17.8	17.8	17.8	59	9.7	2	6	0	0.00	1021.778	471	0.000	2
20071016 13:35	17.7	17.7	17.7	59	9.6	2	5	0	0.00	1021.676	469	0.000	2
20071016 13:40	17.7	17.7	17.7	60	9.8	2	5	0	0.00	1021.643	468	0.000	2
20071016 13:45	17.9	17.9	17.9	59	9.8	3	10	292	0.00	1021.609	469	0.000	2
20071016 13:50	18.2	18.2	18.2	57	9.5	3	11	292	0.00	1021.609	468	0.000	2
20071016 13:55	18.1	18.1	18.1	58	9.7	2	8	0	0.00	1021.473	466	0.000	2
20071016 14:00	18.1	18.1	18.1	58	9.7	2	6	315	0.00	1021.473	462	0.220	2
20071016 14:05	18.1	18.1	18.1	58	9.7	2	8	0	0.00	1021.372	455	0.000	2
20071016 14:10	18.0	18.0	18.0	59	9.9	2	5	22	0.00	1021.473	449	0.000	2
20071016 14:15	18.1	18.1	18.1	58	9.7	5	11	292	0.00	1021.507	440	0.000	2
20071016 14:20	18.3	18.3	18.3	59	10.1	2	5	315	0.00	1021.202	429	0.000	2
20071016 14:25	18.1	18.1	18.1	59	9.9	2	5	22	0.00	1021.270	427	0.000	2
20071016 14:30	17.8	17.8	17.8	59	9.7	2	6	22	0.00	1021.338	423	0.000	2
20071016 14:35	17.9	17.9	17.9	60	10.0	2	5	22	0.00	1021.405	418	0.000	2
20071016 14:40	18.1	18.1	18.1	58	9.7	0	3	22	0.00	1021.202	412	0.000	2
20071016 14:45	18.3	18.3	18.3	58	9.9	3	8	292	0.00	1021.202	411	0.000	2
20071016 14:50	18.3	18.3	18.3	56	9.3	5	10	22	0.00	1021.202	403	0.000	2
20071016 14:55	18.2	18.2	18.2	57	9.6	2	3	270	0.00	1021.168	392	0.000	2
20071016 15:00	18.3	18.3	18.3	58	9.9	0	5	337	0.00	1021.067	387	0.200	2
20071016 15:05	18.6	18.6	18.6	57	9.9	2	3	292	0.00	1021.168	378	0.000	1
20071016 15:10	18.7	18.7	18.7	55	9.5	2	6	292	0.00	1021.033	367	0.000	1
20071016 15:15	18.8	18.8	18.8	55	9.6	2	5	0	0.00	1021.033	364	0.000	1
20071016 15:20	18.8	18.8	18.8	56	9.9	2	8	292	0.00	1020.999	169	0.000	1
20071016 15:25	18.6	18.6	18.6	55	9.4	3	8	292	0.00	1021.033	66	0.000	1
20071016 15:30	18.4	18.4	18.4	56	9.5	2	6	22	0.00	1021.101	68	0.000	1
20071016 15:35	18.4	18.4	18.4	57	9.7	2	6	0	0.00	1021.067	84	0.000	1
20071016 15:40	18.3	18.3	18.3	57	9.7	3	8	22	0.00	1021.033	69	0.000	1
20071016 15:45	18.2	18.2	18.2	57	9.6	2	8	0	0.00	1020.965	66	0.000	1
20071016 15:50	18.1	18.1	18.1	58	9.7	3	6	22	0.00	1020.897	63	0.000	1
20071016 15:55	18.0	18.0	18.0	59	9.9	3	6	22	0.00	1020.864	62	0.000	1
20071016 16:00	17.9	17.9	17.9	58	9.6	3	8	22	0.00	1020.864	65	0.080	1
20071016 16:05	17.9	17.9	17.9	58	9.5	2	5	22	0.00	1020.897	59	0.000	1
20071016 16:10	17.9	17.9	17.9	58	9.5	3	6	22	0.00	1020.728	56	0.000	1
20071016 16:15	17.8	17.8	17.8	59	9.7	3	8	45	0.00	1020.694	60	0.000	1
20071016 16:20	17.7	17.7	17.7	60	9.8	3	8	45	0.00	1020.627	58	0.000	0
20071016 16:25	17.7	17.7	17.7	60	9.8	3	8	67	0.00	1020.728	57	0.000	0
20071016 16:30	17.6	17.6	17.6	61	10.0	2	5	67	0.00	1020.728	55	0.000	0
20071016 16:35	17.6	17.6	17.6	60	9.7	3	8	67	0.00	1020.830	53	0.000	0
20071016 16:40	17.5	17.5	17.5	60	9.6	3	5	67	0.00	1020.830	51	0.000	0
20071016 16:45	17.4	17.4	17.4	60	9.6	3	6	67	0.00	1020.864	49	0.000	0
20071016 16:50	17.3	17.3	17.3	60	9.5	2	5	67	0.00	1020.830	47	0.000	0
20071016 16:55	17.3	17.3	17.3	61	9.7	3	5	45	0.00	1020.830	46	0.000	0
20071016 17:00	17.2	17.2	17.2	61	9.6	2	5	45	0.00	1020.762	44	0.040	0
20071016 17:05	17.2	17.2	17.2	62	9.9	2	5	45	0.00	1020.796	41	0.000	0
20071016 17:10	17.1	17.1	17.1	62	9.8	2	5	45	0.00	1020.830	39	0.000	0
20071016 17:15	17.0	17.0	17.0	62	9.7	3	6	67	0.00	1020.864	39	0.000	0
20071016 17:20	16.9	16.9	16.9	63	9.8	2	5	22	0.00	1020.864	36	0.000	0
20071016 17:25	16.8	16.8	16.8	64	9.9	2	5	22	0.00	1020.931	34	0.000	0
20071016 17:30	16.7	16.7	16.7	64	9.8	0	3	22	0.00	1020.897	32	0.000	0
20071016 17:35	16.6	16.6	16.6	64	9.7	2	3	22	0.00	1020.931	29	0.000	0
20071016 17:40	16.5	16.5	16.5	65	9.9	0	3	45	0.00	1020.931	26	0.000	0
20071016 17:45	16.4	16.4	16.4	66	10.0	0	3	45	0.00	1021.033	24	0.000	0
20071016 17:50	16.2	16.2	16.2	66	9.9	0	3	45	0.00	1021.168	20	0.000	0
20071016 17:55	16.1	16.1	16.1	67	9.9	0	3	45	0.00	1021.168	18	0.000	0
20071016 18:00	15.9	15.9	15.9	68	10.0	0	2	45	0.00	1021.134	15	0.020	0
20071016 18:05	15.8	15.8	15.8	69	10.1	0	3	45	0.00	1021.236	12	0.000	0
20071016 18:10	15.6	15.6	15.6	70	10.1	0	3	45	0.00	1021.304	10	0.000	0
20071016 18:15	15.4	15.4	15.4	71	10.2	0	0	45	0.00	1021.372	7	0.000	0
20071016 18:20	15.1	15.1	15.1	71	9.8	0	2	45	0.00	1021.304	4	0.000	0
20071016 18:25	14.9	14.9	14.9	72	9.9	0	2	45	0.00	1021.338	0	0.000	0
20071016 18:30	14.7	14.7	14.7	72	9.7	0	2	45	0.00	1021.304	0	0.000	0
20071016 18:35	14.6	14.6	14.6	73	9.8	0	0	45	0.00	1021.405	0	0.000	0
20071016 18:40	14.3	14.3	14.3	73	9.6	0	2	45	0.00	1021.372	0	0.000	0
20071016 18:45	14.2	14.2	14.2	74	9.7	0	2	45	0.00	1021.405	0	0.000	0
20071016 18:50	14.0	14.0	14.0	74	9.4	0	2	45	0.00	1021.439	0	0.000	0
20071016 18:55	13.8	13.8	13.8	74	9.3	0	2	45	0.00	1021.541	0	0.000	0
20071016 19:00	13.7	13.7	13.7	75	9.4	0	2	45	0.00	1021.507	0	0.000	0
20071016 19:05	13.6	13.6	13.6	75	9.2	0	2	45	0.00	1021.575	0	0.000	0
20071016 19:10	13.3	13.3	13.3	76	9.2	0	2	45	0.00	1021.575	0	0.000	0
20071016 19:15	13.1	13.1	13.1	77	9.2	0	0	45	0.00	1021.575	0	0.000	0
20071016 19:20	12.9	12.9	12.9	77	9.0	0	0	45	0.00	1021.643	0	0.000	0
20071016 19:25	12.7	12.7	12.7	78	8.9	0	2	45	0.00	1021.744	0	0.000	0
20071016 19:30	12.5	12.5	12.5	79	9.0	0	2	45	0.00	1021.744	0	0.000	0
20071016 19:35	12.3	12.3	12.3	79	8.7	0	0	45	0.00	1021.744	0	0.000	0
20071016 19:40	12.1	12.1	12.1	80	8.7	0	0	45	0.00	1021.778	0	0.000	0
20071016 19:45	11.8	11.8	11.8	81	8.7	0	0	45	0.00	1021.880	0	0.000	0
20071016 19:50	11.7	11.7	11.7	82	8.7	0	2	45	0.00	1021.880	0	0.000	0
20071016 19:55	11.4	11.4	11.4	83	8.7	0	2	45	0.00	1021.880	0	0.000	0
20071016 20:00	11.4	11.4	11.4	83	8.6	0	0	45	0.00	1021.846	0	0.020	0
20071016 20:05	11.4	11.4	11.4	83	8.7	0	0	45	0.00	1021.744	0	0.000	0
20071016 20:10	11.4	11.4	11.4	83	8.6	0	0	45	0.00	1021.778	0	0.000	0
20071016 20:15	11.4	11.4	11.4	83	8.6	0	0	45	0.00	1021.744	0	0.000	0
20071016 20:20	11.4	11.4	11.4	83	8.6	0	0	45	0.00	1021.710	0	0.000	0
20071016 20:25	11.3	11.3	11.3	83	8.5	0	0	45	0.00	1021.710	0	0.000	0
20071016 20:30	11.3	11.3	11.3	83	8.5	0	0	45	0.00	1021.778	0	0.000	0
20071016 20:35	11.2	11.2	11.2	84	8.6	0	2	45	0.00	1021.846	0	0.000	0
20071016 20:40	11.1	11.1	11.1	84	8.5	0	0	45	0.00	1021.812	0	0.000	0
20071016 20:45	11.1	11.1	11.1	84	8.5	0	0	45	0.00	1021.846	0	0.000	0
20071016 20:50	11.0	11.0	11.0	84	8.4	0	0	45	0.00	1021.846	0	0.000	0
20071016 20:55	10.8	10.8	10.8	85	8.4	0	0	45	0.00	1021.880	0	0.000	0
20071016 21:00	10.7	10.7	10.7	85	8.2	0	2	45	0.00	1021.846	0	0.000	0
20071016 21:05	10.5	10.5	10.5	86	8.3	0	2	45	0.00	1021.575	0	0.000	0
20071016 21:10	10.4	10.4	10.4	86	8.1	0	0	45	0.00	1021.541	0	0.000	0
20071016 21:15	10.3	10.3	10.3	87	8.2	0	0	45	0.00	1021.575	0	0.000	0
20071016 21:20	10.2	10.2	10.2	87	8.1	0	0	45	0.00	1021.575	0	0.000	0
20071016 21:25	10.1	10.1	10.1	87	8.0	0	0	45	0.00	1021.575	0	0.000	0
20071016 21:30	10.0	10.0	10.0	87	7.9	0	0	45	0.00	1021.643	0	0.000	0
20071016 21:35	9.9	9.9	9.9	87	7.8	0	2	45	0.00	1021.676	0	0.000	0
20071016 21:40	9.8	9.8	9.8	87	7.7	0	2	67	0.00	1021.710	0	0.000	0
20071016 21:45	9.6	9.6	9.6	88	7.7	0	0	67	0.00	1021.880	0	0.000	0
20071016 21:50	9.4	9.4	9.4	88	7.6	0	0	67	0.00	1021.880	0	0.000	0
20071016 21:55	9.3	9.3	9.3	89	7.6	0	0	67	0.00	1021.812	0	0.000	0
20071016 22:00	9.2	9.2	9.2	89	7.5	0	0	67	0.00	1021.812	0	0.000	0
20071016 22:05	9.1	9.1	9.1	89	7.4	0	0	67	0.00	1021.405	0	0.000	0
20071016 22:10	9.0	9.0	9.0	89	7.3	0	0	67	0.00	1021.405	0	0.000	0
20071016 22:15	8.9	8.9	8.9	89	7.2	0	0	67	0.00	1021.372	0	0.000	0
20071016 22:20	8.8	8.8	8.8	89	7.1	0	0	67	0.00	1021.338	0	0.000	0
20071016 22:25	8.7	8.7	8.7	90	7.1	0	0	67	0.00	1021.338	0	0.000	0
20071016 22:30	8.6	8.6	8.6	90	7.0	0	0	67	0.00	1021.304	0	0.000	0
20071016 22:35	8.5	8.5	8.5	91	7.1	0	0	67	0.00	1021.304	0	0.000	0
20071016 22:40	8.5	8.5	8.5	91	7.1	0	0	67	0.00	1021.372	0	0.000	0
20071016 22:45	8.4	8.4	8.4	91	7.0	0	0	67	0.00	1021.338	0	0.000	0
20071016 22:50	8.3	8.3	8.3	90	6.8	0	0	67	0.00	1021.473	0	0.000	0
20071016 22:55	8.3	8.3	8.3	90	6.7	0	0	67	0.00	1021.473	0	0.000	0
20071016 23:00	8.2	8.2	8.2	90	6.6	0	0	67	0.00	1021.405	0	0.000	0
20071016 23:05	8.1	8.1	8.1	90	6.5	0	0	67	0.00	1021.168	0	0.000	0
20071016 23:10	7.9	7.9	7.9	90	6.4	0	0	67	0.00	1021.270	0	0.000	0
20071016 23:15	7.9	7.9	7.9	91	6.5	0	2	67	0.00	1021.304	0	0.000	0
20071016 23:20	7.9	7.9	7.9	92	6.7	0	2	67	0.00	1021.270	0	0.000	0
20071016 23:25	7.9	7.9	7.9	91	6.6	0	2	67	0.00	1021.304	0	0.000	0
20071016 23:30	7.9	7.9	7.9	91	6.6	0	0	67	0.00	1021.236	0	0.000	0
20071016 23:35	7.9	7.9	7.9	92	6.7	0	0	67	0.00	1021.202	0	0.000	0
20071016 23:40	7.9	7.9	7.9	91	6.5	0	0	67	0.00	1021.202	0	0.000	0
20071016 23:45	7.8	7.8	7.8	91	6.5	0	2	67	0.00	1021.202	0	0.000	0
20071016 23:50	7.8	7.8	7.8	91	6.4	0	2	90	0.00	1021.134	0	0.000	0
20071016 23:55	7.7	7.7	7.7	91	6.3	0	2	90	0.00	1021.168	0	0.000	0
20071016 24:00	7.6	7.6	7.6	91	6.2	0	0	90	0.00	1021.236	0	0.000	0



Please note the license to use and transfer of this data:
http://creativecommons.org/licenses/by-nc-sa/3.0/deed.en

Bitte beachten sie die Lizenz zur Verwertung und Weitergabe der Daten:
http://creativecommons.org/licenses/by-nc-sa/3.0/deed.de

zurück zur Übersicht der Archivdaten (Monats und Tagesdaten)

Cookies helfen bei der Bereitstellung von Inhalten. Durch die Nutzung dieser Seiten erklärst du dich damit einverstanden, dass Cookies auf deinem Rechner gespeichert werden. Weitere Information